sensor_id;sensor_type;location;lat;lon;timestamp;P1;durP1;ratioP1;P2;durP2;ratioP2
65879;SDS011;52661;51.364;6.054;2023-04-03T00:00:45;5.30;;;3.03;;
65879;SDS011;52661;51.364;6.054;2023-04-03T00:03:11;3.97;;;1.30;;
65879;SDS011;52661;51.364;6.054;2023-04-03T00:05:36;3.17;;;1.35;;
65879;SDS011;52661;51.364;6.054;2023-04-03T00:08:02;5.73;;;1.67;;
65879;SDS011;52661;51.364;6.054;2023-04-03T00:10:27;3.63;;;1.67;;
65879;SDS011;52661;51.364;6.054;2023-04-03T00:12:53;5.13;;;2.50;;
65879;SDS011;52661;51.364;6.054;2023-04-03T00:15:18;4.72;;;1.65;;
65879;SDS011;52661;51.364;6.054;2023-04-03T00:17:44;4.53;;;1.73;;
65879;SDS011;52661;51.364;6.054;2023-04-03T00:20:10;5.80;;;1.67;;
65879;SDS011;52661;51.364;6.054;2023-04-03T00:22:36;4.68;;;1.85;;
65879;SDS011;52661;51.364;6.054;2023-04-03T00:25:01;4.05;;;1.73;;
65879;SDS011;52661;51.364;6.054;2023-04-03T00:27:27;8.02;;;1.65;;
65879;SDS011;52661;51.364;6.054;2023-04-03T00:29:52;4.40;;;2.10;;
65879;SDS011;52661;51.364;6.054;2023-04-03T00:32:18;4.37;;;1.80;;
65879;SDS011;52661;51.364;6.054;2023-04-03T00:34:43;6.63;;;2.10;;
65879;SDS011;52661;51.364;6.054;2023-04-03T00:37:08;6.65;;;2.00;;
65879;SDS011;52661;51.364;6.054;2023-04-03T00:39:34;4.50;;;2.15;;
65879;SDS011;52661;51.364;6.054;2023-04-03T00:41:59;4.73;;;1.73;;
65879;SDS011;52661;51.364;6.054;2023-04-03T00:49:18;5.63;;;3.17;;
65879;SDS011;52661;51.364;6.054;2023-04-03T00:51:43;3.55;;;1.45;;
65879;SDS011;52661;51.364;6.054;2023-04-03T00:54:09;4.82;;;2.20;;
65879;SDS011;52661;51.364;6.054;2023-04-03T00:56:34;4.28;;;1.55;;
65879;SDS011;52661;51.364;6.054;2023-04-03T00:59:02;4.53;;;1.80;;
65879;SDS011;52661;51.364;6.054;2023-04-03T01:01:33;3.33;;;1.77;;
65879;SDS011;52661;51.364;6.054;2023-04-03T01:03:59;5.28;;;1.92;;
65879;SDS011;52661;51.364;6.054;2023-04-03T01:06:28;3.88;;;1.60;;
65879;SDS011;52661;51.364;6.054;2023-04-03T01:08:57;5.57;;;2.00;;
65879;SDS011;52661;51.364;6.054;2023-04-03T01:11:24;5.88;;;2.25;;
65879;SDS011;52661;51.364;6.054;2023-04-03T01:13:49;7.20;;;3.47;;
65879;SDS011;52661;51.364;6.054;2023-04-03T01:16:15;5.95;;;2.60;;
65879;SDS011;52661;51.364;6.054;2023-04-03T01:18:40;8.13;;;5.03;;
65879;SDS011;52661;51.364;6.054;2023-04-03T01:26:23;12.40;;;5.35;;
65879;SDS011;52661;51.364;6.054;2023-04-03T01:28:50;13.93;;;6.22;;
65879;SDS011;52661;51.364;6.054;2023-04-03T01:31:28;14.07;;;6.88;;
65879;SDS011;52661;51.364;6.054;2023-04-03T01:33:59;14.23;;;7.25;;
65879;SDS011;52661;51.364;6.054;2023-04-03T01:36:25;11.63;;;6.63;;
65879;SDS011;52661;51.364;6.054;2023-04-03T01:38:53;9.55;;;5.10;;
65879;SDS011;52661;51.364;6.054;2023-04-03T01:41:19;10.25;;;6.00;;
65879;SDS011;52661;51.364;6.054;2023-04-03T01:43:46;7.85;;;2.72;;
65879;SDS011;52661;51.364;6.054;2023-04-03T01:46:12;6.18;;;2.17;;
65879;SDS011;52661;51.364;6.054;2023-04-03T01:48:37;5.50;;;3.63;;
65879;SDS011;52661;51.364;6.054;2023-04-03T01:51:03;8.40;;;2.30;;
65879;SDS011;52661;51.364;6.054;2023-04-03T01:53:28;4.30;;;2.45;;
65879;SDS011;52661;51.364;6.054;2023-04-03T01:55:53;7.63;;;3.33;;
65879;SDS011;52661;51.364;6.054;2023-04-03T01:58:19;7.65;;;2.90;;
65879;SDS011;52661;51.364;6.054;2023-04-03T02:00:44;4.82;;;2.42;;
65879;SDS011;52661;51.364;6.054;2023-04-03T02:03:10;5.00;;;3.47;;
65879;SDS011;52661;51.364;6.054;2023-04-03T02:05:35;4.90;;;2.25;;
65879;SDS011;52661;51.364;6.054;2023-04-03T02:08:01;5.23;;;2.30;;
65879;SDS011;52661;51.364;6.054;2023-04-03T02:10:26;6.25;;;2.50;;
65879;SDS011;52661;51.364;6.054;2023-04-03T02:12:52;3.88;;;2.25;;
65879;SDS011;52661;51.364;6.054;2023-04-03T02:15:17;7.53;;;2.27;;
65879;SDS011;52661;51.364;6.054;2023-04-03T02:17:42;6.22;;;3.15;;
65879;SDS011;52661;51.364;6.054;2023-04-03T02:20:08;5.82;;;2.53;;
65879;SDS011;52661;51.364;6.054;2023-04-03T02:22:34;4.30;;;1.85;;
65879;SDS011;52661;51.364;6.054;2023-04-03T02:25:00;5.32;;;2.10;;
65879;SDS011;52661;51.364;6.054;2023-04-03T02:27:25;6.50;;;2.20;;
65879;SDS011;52661;51.364;6.054;2023-04-03T02:29:51;5.30;;;1.90;;
65879;SDS011;52661;51.364;6.054;2023-04-03T02:32:16;6.13;;;2.07;;
65879;SDS011;52661;51.364;6.054;2023-04-03T02:34:42;4.38;;;2.20;;
65879;SDS011;52661;51.364;6.054;2023-04-03T02:37:07;6.28;;;2.20;;
65879;SDS011;52661;51.364;6.054;2023-04-03T02:39:33;6.50;;;2.33;;
65879;SDS011;52661;51.364;6.054;2023-04-03T02:41:58;6.60;;;2.35;;
65879;SDS011;52661;51.364;6.054;2023-04-03T02:44:24;4.47;;;1.73;;
65879;SDS011;52661;51.364;6.054;2023-04-03T02:46:49;5.43;;;1.73;;
65879;SDS011;52661;51.364;6.054;2023-04-03T02:49:15;4.45;;;2.10;;
65879;SDS011;52661;51.364;6.054;2023-04-03T02:51:40;6.07;;;1.92;;
65879;SDS011;52661;51.364;6.054;2023-04-03T02:54:06;3.55;;;1.80;;
65879;SDS011;52661;51.364;6.054;2023-04-03T02:56:32;5.60;;;2.00;;
65879;SDS011;52661;51.364;6.054;2023-04-03T02:58:57;5.10;;;1.65;;
65879;SDS011;52661;51.364;6.054;2023-04-03T03:01:23;3.70;;;1.70;;
65879;SDS011;52661;51.364;6.054;2023-04-03T03:03:48;5.60;;;1.70;;
65879;SDS011;52661;51.364;6.054;2023-04-03T03:06:14;4.40;;;2.13;;
65879;SDS011;52661;51.364;6.054;2023-04-03T03:08:41;4.05;;;2.38;;
65879;SDS011;52661;51.364;6.054;2023-04-03T03:11:07;4.50;;;1.63;;
65879;SDS011;52661;51.364;6.054;2023-04-03T03:13:32;5.95;;;1.95;;
65879;SDS011;52661;51.364;6.054;2023-04-03T03:15:58;4.50;;;2.70;;
65879;SDS011;52661;51.364;6.054;2023-04-03T03:18:24;4.82;;;1.73;;
65879;SDS011;52661;51.364;6.054;2023-04-03T03:20:53;3.65;;;1.48;;
65879;SDS011;52661;51.364;6.054;2023-04-03T03:23:21;5.55;;;2.53;;
65879;SDS011;52661;51.364;6.054;2023-04-03T03:25:48;5.20;;;1.50;;
65879;SDS011;52661;51.364;6.054;2023-04-03T03:28:13;6.25;;;1.67;;
65879;SDS011;52661;51.364;6.054;2023-04-03T03:30:39;3.53;;;1.30;;
65879;SDS011;52661;51.364;6.054;2023-04-03T03:33:04;3.00;;;1.30;;
65879;SDS011;52661;51.364;6.054;2023-04-03T03:35:29;3.42;;;2.20;;
65879;SDS011;52661;51.364;6.054;2023-04-03T03:37:55;3.58;;;1.42;;
65879;SDS011;52661;51.364;6.054;2023-04-03T03:40:20;4.07;;;1.58;;
65879;SDS011;52661;51.364;6.054;2023-04-03T03:42:45;6.68;;;1.70;;
65879;SDS011;52661;51.364;6.054;2023-04-03T03:45:11;5.27;;;1.83;;
65879;SDS011;52661;51.364;6.054;2023-04-03T03:47:36;3.53;;;1.33;;
65879;SDS011;52661;51.364;6.054;2023-04-03T03:50:02;3.72;;;2.33;;
65879;SDS011;52661;51.364;6.054;2023-04-03T03:52:28;6.35;;;1.13;;
65879;SDS011;52661;51.364;6.054;2023-04-03T03:54:54;5.18;;;1.75;;
65879;SDS011;52661;51.364;6.054;2023-04-03T03:57:20;5.95;;;1.23;;
65879;SDS011;52661;51.364;6.054;2023-04-03T03:59:46;5.60;;;0.90;;
65879;SDS011;52661;51.364;6.054;2023-04-03T04:02:12;3.97;;;1.60;;
65879;SDS011;52661;51.364;6.054;2023-04-03T04:04:37;4.18;;;1.42;;
65879;SDS011;52661;51.364;6.054;2023-04-03T04:07:03;8.73;;;1.30;;
65879;SDS011;52661;51.364;6.054;2023-04-03T04:09:28;3.83;;;1.30;;
65879;SDS011;52661;51.364;6.054;2023-04-03T04:11:54;2.90;;;1.38;;
65879;SDS011;52661;51.364;6.054;2023-04-03T04:14:19;3.53;;;0.85;;
65879;SDS011;52661;51.364;6.054;2023-04-03T04:16:47;2.90;;;0.90;;
65879;SDS011;52661;51.364;6.054;2023-04-03T04:19:13;3.47;;;1.65;;
65879;SDS011;52661;51.364;6.054;2023-04-03T04:21:38;3.38;;;1.05;;
65879;SDS011;52661;51.364;6.054;2023-04-03T04:24:04;3.90;;;0.80;;
65879;SDS011;52661;51.364;6.054;2023-04-03T04:26:30;3.05;;;1.13;;
65879;SDS011;52661;51.364;6.054;2023-04-03T04:28:55;3.60;;;1.20;;
65879;SDS011;52661;51.364;6.054;2023-04-03T04:31:21;3.90;;;0.97;;
65879;SDS011;52661;51.364;6.054;2023-04-03T04:33:46;3.93;;;1.63;;
65879;SDS011;52661;51.364;6.054;2023-04-03T04:36:11;2.93;;;0.93;;
65879;SDS011;52661;51.364;6.054;2023-04-03T04:38:37;4.53;;;1.25;;
65879;SDS011;52661;51.364;6.054;2023-04-03T04:41:03;5.10;;;0.80;;
65879;SDS011;52661;51.364;6.054;2023-04-03T04:43:28;3.35;;;1.02;;
65879;SDS011;52661;51.364;6.054;2023-04-03T04:46:04;3.58;;;1.08;;
65879;SDS011;52661;51.364;6.054;2023-04-03T04:48:30;2.80;;;0.68;;
65879;SDS011;52661;51.364;6.054;2023-04-03T04:50:56;3.75;;;1.30;;
65879;SDS011;52661;51.364;6.054;2023-04-03T04:53:21;4.23;;;0.87;;
65879;SDS011;52661;51.364;6.054;2023-04-03T04:55:47;4.45;;;0.70;;
65879;SDS011;52661;51.364;6.054;2023-04-03T04:58:12;3.45;;;0.73;;
65879;SDS011;52661;51.364;6.054;2023-04-03T05:00:38;3.58;;;0.68;;
65879;SDS011;52661;51.364;6.054;2023-04-03T05:03:03;3.70;;;1.17;;
65879;SDS011;52661;51.364;6.054;2023-04-03T05:05:28;3.17;;;0.75;;
65879;SDS011;52661;51.364;6.054;2023-04-03T05:07:54;5.05;;;0.85;;
65879;SDS011;52661;51.364;6.054;2023-04-03T05:10:19;2.92;;;0.77;;
65879;SDS011;52661;51.364;6.054;2023-04-03T05:12:45;4.03;;;0.73;;
65879;SDS011;52661;51.364;6.054;2023-04-03T05:15:11;4.60;;;0.73;;
65879;SDS011;52661;51.364;6.054;2023-04-03T05:17:36;3.63;;;0.50;;
65879;SDS011;52661;51.364;6.054;2023-04-03T05:20:02;4.13;;;0.70;;
65879;SDS011;52661;51.364;6.054;2023-04-03T05:22:29;6.10;;;0.60;;
65879;SDS011;52661;51.364;6.054;2023-04-03T05:24:55;4.95;;;0.60;;
65879;SDS011;52661;51.364;6.054;2023-04-03T05:27:20;3.33;;;1.27;;
65879;SDS011;52661;51.364;6.054;2023-04-03T05:29:45;2.63;;;0.47;;
65879;SDS011;52661;51.364;6.054;2023-04-03T05:32:10;2.77;;;0.43;;
65879;SDS011;52661;51.364;6.054;2023-04-03T05:34:36;6.32;;;1.00;;
65879;SDS011;52661;51.364;6.054;2023-04-03T05:37:02;5.15;;;0.82;;
65879;SDS011;52661;51.364;6.054;2023-04-03T05:39:29;4.00;;;0.90;;
65879;SDS011;52661;51.364;6.054;2023-04-03T05:41:56;4.05;;;0.65;;
65879;SDS011;52661;51.364;6.054;2023-04-03T05:44:21;3.37;;;0.90;;
65879;SDS011;52661;51.364;6.054;2023-04-03T05:46:47;3.70;;;0.93;;
65879;SDS011;52661;51.364;6.054;2023-04-03T05:49:12;4.45;;;0.70;;
65879;SDS011;52661;51.364;6.054;2023-04-03T05:51:38;3.27;;;0.47;;
65879;SDS011;52661;51.364;6.054;2023-04-03T05:54:12;3.65;;;0.63;;
65879;SDS011;52661;51.364;6.054;2023-04-03T05:56:42;5.88;;;1.52;;
65879;SDS011;52661;51.364;6.054;2023-04-03T05:59:07;5.33;;;0.77;;
65879;SDS011;52661;51.364;6.054;2023-04-03T06:01:33;4.33;;;0.63;;
65879;SDS011;52661;51.364;6.054;2023-04-03T06:03:59;4.63;;;1.08;;
65879;SDS011;52661;51.364;6.054;2023-04-03T06:06:24;3.17;;;0.75;;
65879;SDS011;52661;51.364;6.054;2023-04-03T06:08:49;4.00;;;0.93;;
65879;SDS011;52661;51.364;6.054;2023-04-03T06:11:15;4.83;;;0.60;;
65879;SDS011;52661;51.364;6.054;2023-04-03T06:13:40;4.77;;;1.30;;
65879;SDS011;52661;51.364;6.054;2023-04-03T06:16:05;2.55;;;0.50;;
65879;SDS011;52661;51.364;6.054;2023-04-03T06:18:31;4.43;;;0.68;;
65879;SDS011;52661;51.364;6.054;2023-04-03T06:20:56;2.33;;;0.40;;
65879;SDS011;52661;51.364;6.054;2023-04-03T06:23:23;3.40;;;1.02;;
65879;SDS011;52661;51.364;6.054;2023-04-03T06:25:48;3.10;;;0.57;;
65879;SDS011;52661;51.364;6.054;2023-04-03T06:28:13;4.10;;;0.90;;
65879;SDS011;52661;51.364;6.054;2023-04-03T06:30:39;2.67;;;0.73;;
65879;SDS011;52661;51.364;6.054;2023-04-03T06:33:04;4.93;;;0.55;;
65879;SDS011;52661;51.364;6.054;2023-04-03T06:35:30;3.67;;;0.80;;
65879;SDS011;52661;51.364;6.054;2023-04-03T06:37:55;6.03;;;0.52;;
65879;SDS011;52661;51.364;6.054;2023-04-03T06:40:22;5.13;;;1.95;;
65879;SDS011;52661;51.364;6.054;2023-04-03T06:42:50;5.65;;;0.82;;
65879;SDS011;52661;51.364;6.054;2023-04-03T06:45:15;4.00;;;1.15;;
65879;SDS011;52661;51.364;6.054;2023-04-03T06:47:40;3.53;;;0.57;;
65879;SDS011;52661;51.364;6.054;2023-04-03T06:50:06;4.85;;;0.77;;
65879;SDS011;52661;51.364;6.054;2023-04-03T06:52:33;5.72;;;1.50;;
65879;SDS011;52661;51.364;6.054;2023-04-03T06:54:59;2.08;;;0.73;;
65879;SDS011;52661;51.364;6.054;2023-04-03T06:57:25;3.05;;;0.70;;
65879;SDS011;52661;51.364;6.054;2023-04-03T06:59:51;4.90;;;2.00;;
65879;SDS011;52661;51.364;6.054;2023-04-03T07:02:17;5.10;;;1.73;;
65879;SDS011;52661;51.364;6.054;2023-04-03T07:04:42;2.05;;;0.77;;
65879;SDS011;52661;51.364;6.054;2023-04-03T07:07:07;2.73;;;0.83;;
65879;SDS011;52661;51.364;6.054;2023-04-03T07:09:33;4.90;;;0.63;;
65879;SDS011;52661;51.364;6.054;2023-04-03T07:11:58;3.78;;;0.45;;
65879;SDS011;52661;51.364;6.054;2023-04-03T07:14:23;8.50;;;0.90;;
65879;SDS011;52661;51.364;6.054;2023-04-03T07:16:49;4.55;;;0.80;;
65879;SDS011;52661;51.364;6.054;2023-04-03T07:19:14;2.55;;;0.90;;
65879;SDS011;52661;51.364;6.054;2023-04-03T07:21:40;5.57;;;1.70;;
65879;SDS011;52661;51.364;6.054;2023-04-03T07:24:07;6.25;;;0.82;;
65879;SDS011;52661;51.364;6.054;2023-04-03T07:26:32;4.30;;;1.05;;
65879;SDS011;52661;51.364;6.054;2023-04-03T07:28:57;6.20;;;0.70;;
65879;SDS011;52661;51.364;6.054;2023-04-03T07:31:23;6.72;;;0.88;;
65879;SDS011;52661;51.364;6.054;2023-04-03T07:33:48;2.92;;;0.50;;
65879;SDS011;52661;51.364;6.054;2023-04-03T07:36:17;4.80;;;0.97;;
65879;SDS011;52661;51.364;6.054;2023-04-03T07:38:44;6.05;;;1.05;;
65879;SDS011;52661;51.364;6.054;2023-04-03T07:41:18;6.43;;;0.85;;
65879;SDS011;52661;51.364;6.054;2023-04-03T07:46:10;5.10;;;1.80;;
65879;SDS011;52661;51.364;6.054;2023-04-03T07:48:36;7.35;;;1.52;;
65879;SDS011;52661;51.364;6.054;2023-04-03T07:51:02;5.03;;;0.80;;
65879;SDS011;52661;51.364;6.054;2023-04-03T07:53:28;3.10;;;0.80;;
65879;SDS011;52661;51.364;6.054;2023-04-03T07:55:55;2.60;;;0.80;;
65879;SDS011;52661;51.364;6.054;2023-04-03T07:58:22;6.35;;;1.20;;
65879;SDS011;52661;51.364;6.054;2023-04-03T08:00:47;8.15;;;1.10;;
65879;SDS011;52661;51.364;6.054;2023-04-03T08:03:13;6.13;;;1.00;;
65879;SDS011;52661;51.364;6.054;2023-04-03T08:05:44;5.03;;;1.60;;
65879;SDS011;52661;51.364;6.054;2023-04-03T08:08:11;4.40;;;1.30;;
65879;SDS011;52661;51.364;6.054;2023-04-03T08:10:38;4.38;;;0.88;;
65879;SDS011;52661;51.364;6.054;2023-04-03T08:13:04;4.28;;;0.80;;
65879;SDS011;52661;51.364;6.054;2023-04-03T08:15:30;6.85;;;1.23;;
65879;SDS011;52661;51.364;6.054;2023-04-03T08:17:56;5.90;;;0.88;;
65879;SDS011;52661;51.364;6.054;2023-04-03T08:20:22;4.18;;;1.35;;
65879;SDS011;52661;51.364;6.054;2023-04-03T08:22:47;4.07;;;0.50;;
65879;SDS011;52661;51.364;6.054;2023-04-03T08:25:12;5.35;;;0.90;;
65879;SDS011;52661;51.364;6.054;2023-04-03T08:27:38;4.00;;;0.77;;
65879;SDS011;52661;51.364;6.054;2023-04-03T08:30:03;9.00;;;0.77;;
65879;SDS011;52661;51.364;6.054;2023-04-03T08:32:29;5.78;;;2.03;;
65879;SDS011;52661;51.364;6.054;2023-04-03T08:34:55;4.35;;;1.42;;
65879;SDS011;52661;51.364;6.054;2023-04-03T08:37:20;4.63;;;0.77;;
65879;SDS011;52661;51.364;6.054;2023-04-03T08:39:46;5.93;;;0.95;;
65879;SDS011;52661;51.364;6.054;2023-04-03T08:43:02;3.10;;;0.98;;
65879;SDS011;52661;51.364;6.054;2023-04-03T08:45:15;2.88;;;0.82;;
65879;SDS011;52661;51.364;6.054;2023-04-03T08:50:30;5.40;;;0.57;;
65879;SDS011;52661;51.364;6.054;2023-04-03T08:53:01;5.13;;;0.52;;
65879;SDS011;52661;51.364;6.054;2023-04-03T08:55:33;2.22;;;0.30;;
65879;SDS011;52661;51.364;6.054;2023-04-03T08:58:30;2.50;;;1.52;;
65879;SDS011;52661;51.364;6.054;2023-04-03T09:01:03;3.88;;;0.75;;
65879;SDS011;52661;51.364;6.054;2023-04-03T09:03:33;1.08;;;0.43;;
65879;SDS011;52661;51.364;6.054;2023-04-03T09:06:05;2.80;;;0.70;;
65879;SDS011;52661;51.364;6.054;2023-04-03T09:14:38;3.05;;;0.68;;
65879;SDS011;52661;51.364;6.054;2023-04-03T09:19:39;3.10;;;0.82;;
65879;SDS011;52661;51.364;6.054;2023-04-03T09:22:16;1.85;;;0.77;;
65879;SDS011;52661;51.364;6.054;2023-04-03T09:24:45;3.00;;;0.80;;
65879;SDS011;52661;51.364;6.054;2023-04-03T09:27:15;3.05;;;0.40;;
65879;SDS011;52661;51.364;6.054;2023-04-03T09:29:43;4.18;;;0.40;;
65879;SDS011;52661;51.364;6.054;2023-04-03T09:32:27;3.15;;;0.38;;
65879;SDS011;52661;51.364;6.054;2023-04-03T09:35:02;3.97;;;0.70;;
65879;SDS011;52661;51.364;6.054;2023-04-03T09:37:34;1.00;;;0.28;;
65879;SDS011;52661;51.364;6.054;2023-04-03T09:40:02;3.33;;;1.48;;
65879;SDS011;52661;51.364;6.054;2023-04-03T09:42:29;2.85;;;0.38;;
65879;SDS011;52661;51.364;6.054;2023-04-03T09:45:00;2.25;;;0.30;;
65879;SDS011;52661;51.364;6.054;2023-04-03T09:47:28;1.83;;;0.43;;
65879;SDS011;52661;51.364;6.054;2023-04-03T09:52:39;1.65;;;0.45;;
65879;SDS011;52661;51.364;6.054;2023-04-03T09:55:17;1.90;;;0.30;;
65879;SDS011;52661;51.364;6.054;2023-04-03T09:57:52;3.45;;;0.65;;
65879;SDS011;52661;51.364;6.054;2023-04-03T10:00:19;2.15;;;0.82;;
65879;SDS011;52661;51.364;6.054;2023-04-03T10:02:53;2.80;;;0.95;;
65879;SDS011;52661;51.364;6.054;2023-04-03T10:10:43;2.13;;;0.30;;
65879;SDS011;52661;51.364;6.054;2023-04-03T10:13:11;2.85;;;1.42;;
65879;SDS011;52661;51.364;6.054;2023-04-03T10:15:42;3.42;;;0.43;;
65879;SDS011;52661;51.364;6.054;2023-04-03T10:18:22;2.40;;;0.52;;
65879;SDS011;52661;51.364;6.054;2023-04-03T10:21:02;2.45;;;0.95;;
65879;SDS011;52661;51.364;6.054;2023-04-03T10:23:33;2.00;;;0.20;;
65879;SDS011;52661;51.364;6.054;2023-04-03T10:26:16;3.03;;;0.20;;
65879;SDS011;52661;51.364;6.054;2023-04-03T10:29:01;1.88;;;0.32;;
65879;SDS011;52661;51.364;6.054;2023-04-03T10:34:39;4.13;;;0.95;;
65879;SDS011;52661;51.364;6.054;2023-04-03T10:39:51;2.30;;;0.65;;
65879;SDS011;52661;51.364;6.054;2023-04-03T10:50:31;1.48;;;0.10;;
65879;SDS011;52661;51.364;6.054;2023-04-03T10:58:54;2.03;;;0.55;;
65879;SDS011;52661;51.364;6.054;2023-04-03T11:01:27;1.05;;;0.35;;
65879;SDS011;52661;51.364;6.054;2023-04-03T11:03:58;2.20;;;0.38;;
65879;SDS011;52661;51.364;6.054;2023-04-03T11:06:39;1.30;;;0.30;;
65879;SDS011;52661;51.364;6.054;2023-04-03T11:09:22;1.98;;;0.63;;
65879;SDS011;52661;51.364;6.054;2023-04-03T11:11:53;0.40;;;0.13;;
65879;SDS011;52661;51.364;6.054;2023-04-03T11:14:29;2.75;;;0.95;;
65879;SDS011;52661;51.364;6.054;2023-04-03T11:22:24;4.85;;;0.80;;
65879;SDS011;52661;51.364;6.054;2023-04-03T11:24:56;1.80;;;0.43;;
65879;SDS011;52661;51.364;6.054;2023-04-03T11:27:27;2.17;;;0.32;;
65879;SDS011;52661;51.364;6.054;2023-04-03T11:30:02;1.48;;;0.20;;
65879;SDS011;52661;51.364;6.054;2023-04-03T11:35:18;1.77;;;0.20;;
65879;SDS011;52661;51.364;6.054;2023-04-03T11:37:46;1.10;;;0.15;;
65879;SDS011;52661;51.364;6.054;2023-04-03T11:42:41;1.58;;;0.25;;
65879;SDS011;52661;51.364;6.054;2023-04-03T11:47:50;0.70;;;0.22;;
65879;SDS011;52661;51.364;6.054;2023-04-03T11:50:30;2.78;;;0.50;;
65879;SDS011;52661;51.364;6.054;2023-04-03T11:53:10;1.58;;;0.30;;
65879;SDS011;52661;51.364;6.054;2023-04-03T11:56:04;1.63;;;0.40;;
65879;SDS011;52661;51.364;6.054;2023-04-03T12:01:54;0.75;;;0.47;;
65879;SDS011;52661;51.364;6.054;2023-04-03T12:04:22;0.98;;;0.30;;
65879;SDS011;52661;51.364;6.054;2023-04-03T12:06:51;1.70;;;1.02;;
65879;SDS011;52661;51.364;6.054;2023-04-03T12:09:32;2.35;;;1.13;;
65879;SDS011;52661;51.364;6.054;2023-04-03T12:15:12;2.88;;;0.35;;
65879;SDS011;52661;51.364;6.054;2023-04-03T12:17:44;3.00;;;1.00;;
65879;SDS011;52661;51.364;6.054;2023-04-03T12:23:26;1.13;;;0.25;;
65879;SDS011;52661;51.364;6.054;2023-04-03T12:28:46;0.63;;;0.40;;
65879;SDS011;52661;51.364;6.054;2023-04-03T12:31:15;2.33;;;0.43;;
65879;SDS011;52661;51.364;6.054;2023-04-03T12:36:32;1.10;;;0.38;;
65879;SDS011;52661;51.364;6.054;2023-04-03T12:41:58;1.67;;;0.25;;
65879;SDS011;52661;51.364;6.054;2023-04-03T12:45:23;3.97;;;0.50;;
65879;SDS011;52661;51.364;6.054;2023-04-03T12:47:38;1.20;;;0.55;;
65879;SDS011;52661;51.364;6.054;2023-04-03T12:50:40;2.25;;;0.57;;
65879;SDS011;52661;51.364;6.054;2023-04-03T12:53:00;1.13;;;0.20;;
65879;SDS011;52661;51.364;6.054;2023-04-03T12:55:26;2.13;;;0.60;;
65879;SDS011;52661;51.364;6.054;2023-04-03T12:57:52;1.90;;;0.32;;
65879;SDS011;52661;51.364;6.054;2023-04-03T13:00:18;2.85;;;0.30;;
65879;SDS011;52661;51.364;6.054;2023-04-03T13:02:51;2.20;;;0.63;;
65879;SDS011;52661;51.364;6.054;2023-04-03T13:05:18;2.00;;;0.63;;
65879;SDS011;52661;51.364;6.054;2023-04-03T13:07:45;3.13;;;0.47;;
65879;SDS011;52661;51.364;6.054;2023-04-03T13:10:15;4.32;;;1.38;;
65879;SDS011;52661;51.364;6.054;2023-04-03T13:12:46;3.28;;;1.73;;
65879;SDS011;52661;51.364;6.054;2023-04-03T13:17:49;3.78;;;0.43;;
65879;SDS011;52661;51.364;6.054;2023-04-03T13:20:20;3.42;;;0.50;;
65879;SDS011;52661;51.364;6.054;2023-04-03T13:22:50;2.67;;;0.47;;
65879;SDS011;52661;51.364;6.054;2023-04-03T13:25:21;4.60;;;0.63;;
65879;SDS011;52661;51.364;6.054;2023-04-03T13:27:49;3.35;;;0.63;;
65879;SDS011;52661;51.364;6.054;2023-04-03T13:30:32;3.55;;;0.75;;
65879;SDS011;52661;51.364;6.054;2023-04-03T13:33:00;2.90;;;0.43;;
65879;SDS011;52661;51.364;6.054;2023-04-03T13:35:36;3.00;;;0.50;;
65879;SDS011;52661;51.364;6.054;2023-04-03T13:38:21;2.65;;;0.52;;
65879;SDS011;52661;51.364;6.054;2023-04-03T13:40:53;3.88;;;0.50;;
65879;SDS011;52661;51.364;6.054;2023-04-03T13:43:21;3.63;;;0.47;;
65879;SDS011;52661;51.364;6.054;2023-04-03T13:48:47;1.55;;;0.30;;
65879;SDS011;52661;51.364;6.054;2023-04-03T13:51:21;1.92;;;0.65;;
65879;SDS011;52661;51.364;6.054;2023-04-03T13:53:55;2.35;;;0.57;;
65879;SDS011;52661;51.364;6.054;2023-04-03T13:56:38;1.60;;;0.50;;
65879;SDS011;52661;51.364;6.054;2023-04-03T14:04:24;3.80;;;0.68;;
65879;SDS011;52661;51.364;6.054;2023-04-03T14:06:52;3.33;;;0.57;;
65879;SDS011;52661;51.364;6.054;2023-04-03T14:09:18;1.88;;;0.32;;
65879;SDS011;52661;51.364;6.054;2023-04-03T14:11:46;3.78;;;0.93;;
65879;SDS011;52661;51.364;6.054;2023-04-03T14:14:18;4.30;;;0.40;;
65879;SDS011;52661;51.364;6.054;2023-04-03T14:16:48;3.17;;;0.70;;
65879;SDS011;52661;51.364;6.054;2023-04-03T14:19:38;2.15;;;0.40;;
65879;SDS011;52661;51.364;6.054;2023-04-03T14:22:10;2.13;;;0.73;;
65879;SDS011;52661;51.364;6.054;2023-04-03T14:24:38;2.40;;;0.57;;
65879;SDS011;52661;51.364;6.054;2023-04-03T14:27:05;3.45;;;0.50;;
65879;SDS011;52661;51.364;6.054;2023-04-03T14:29:40;4.63;;;1.55;;
65879;SDS011;52661;51.364;6.054;2023-04-03T14:32:06;3.20;;;0.55;;
65879;SDS011;52661;51.364;6.054;2023-04-03T14:34:31;3.08;;;0.73;;
65879;SDS011;52661;51.364;6.054;2023-04-03T14:36:56;3.50;;;1.23;;
65879;SDS011;52661;51.364;6.054;2023-04-03T14:39:22;2.35;;;0.60;;
65879;SDS011;52661;51.364;6.054;2023-04-03T14:41:47;3.17;;;0.70;;
65879;SDS011;52661;51.364;6.054;2023-04-03T14:44:12;4.10;;;1.15;;
65879;SDS011;52661;51.364;6.054;2023-04-03T14:46:39;1.88;;;0.45;;
65879;SDS011;52661;51.364;6.054;2023-04-03T14:49:15;3.17;;;1.30;;
65879;SDS011;52661;51.364;6.054;2023-04-03T14:51:42;3.45;;;0.50;;
65879;SDS011;52661;51.364;6.054;2023-04-03T14:54:16;2.13;;;0.35;;
65879;SDS011;52661;51.364;6.054;2023-04-03T14:56:44;3.28;;;0.45;;
65879;SDS011;52661;51.364;6.054;2023-04-03T14:59:09;4.50;;;0.52;;
65879;SDS011;52661;51.364;6.054;2023-04-03T15:01:37;2.75;;;0.50;;
65879;SDS011;52661;51.364;6.054;2023-04-03T15:04:08;3.87;;;0.87;;
65879;SDS011;52661;51.364;6.054;2023-04-03T15:06:36;1.60;;;0.30;;
65879;SDS011;52661;51.364;6.054;2023-04-03T15:09:02;1.30;;;0.70;;
65879;SDS011;52661;51.364;6.054;2023-04-03T15:11:28;2.83;;;0.38;;
65879;SDS011;52661;51.364;6.054;2023-04-03T15:13:53;3.70;;;0.82;;
65879;SDS011;52661;51.364;6.054;2023-04-03T15:16:18;1.57;;;0.20;;
65879;SDS011;52661;51.364;6.054;2023-04-03T15:18:45;4.63;;;1.33;;
65879;SDS011;52661;51.364;6.054;2023-04-03T15:21:11;1.80;;;0.20;;
65879;SDS011;52661;51.364;6.054;2023-04-03T15:23:37;3.08;;;0.30;;
65879;SDS011;52661;51.364;6.054;2023-04-03T15:26:02;2.35;;;0.50;;
65879;SDS011;52661;51.364;6.054;2023-04-03T15:30:58;2.03;;;0.40;;
65879;SDS011;52661;51.364;6.054;2023-04-03T15:33:24;4.82;;;1.35;;
65879;SDS011;52661;51.364;6.054;2023-04-03T15:35:50;3.25;;;0.40;;
65879;SDS011;52661;51.364;6.054;2023-04-03T15:38:16;3.70;;;0.90;;
65879;SDS011;52661;51.364;6.054;2023-04-03T15:40:41;3.47;;;0.82;;
65879;SDS011;52661;51.364;6.054;2023-04-03T15:43:08;2.78;;;0.45;;
65879;SDS011;52661;51.364;6.054;2023-04-03T15:45:34;1.80;;;0.20;;
65879;SDS011;52661;51.364;6.054;2023-04-03T15:48:02;2.72;;;0.50;;
65879;SDS011;52661;51.364;6.054;2023-04-03T15:50:28;2.42;;;0.30;;
65879;SDS011;52661;51.364;6.054;2023-04-03T15:52:53;1.50;;;0.82;;
65879;SDS011;52661;51.364;6.054;2023-04-03T15:55:23;1.50;;;0.32;;
65879;SDS011;52661;51.364;6.054;2023-04-03T15:57:50;1.95;;;0.68;;
65879;SDS011;52661;51.364;6.054;2023-04-03T16:00:16;2.60;;;0.52;;
65879;SDS011;52661;51.364;6.054;2023-04-03T16:02:45;3.80;;;0.30;;
65879;SDS011;52661;51.364;6.054;2023-04-03T16:05:14;1.80;;;0.95;;
65879;SDS011;52661;51.364;6.054;2023-04-03T16:07:42;3.55;;;0.60;;
65879;SDS011;52661;51.364;6.054;2023-04-03T16:10:08;1.85;;;0.30;;
65879;SDS011;52661;51.364;6.054;2023-04-03T16:12:34;2.85;;;0.32;;
65879;SDS011;52661;51.364;6.054;2023-04-03T16:15:00;4.03;;;0.85;;
65879;SDS011;52661;51.364;6.054;2023-04-03T16:17:27;4.22;;;0.85;;
65879;SDS011;52661;51.364;6.054;2023-04-03T16:19:53;2.83;;;0.40;;
65879;SDS011;52661;51.364;6.054;2023-04-03T16:22:20;4.50;;;0.45;;
65879;SDS011;52661;51.364;6.054;2023-04-03T16:27:14;2.72;;;1.38;;
65879;SDS011;52661;51.364;6.054;2023-04-03T16:29:40;2.47;;;0.50;;
65879;SDS011;52661;51.364;6.054;2023-04-03T16:32:05;1.80;;;0.30;;